sensor_id;sensor_type;location;lat;lon;timestamp;temperature;humidity
3778;DHT22;1904;50.076;8.660;2023-06-14T00:00:23;16.60;1.00
3778;DHT22;1904;50.076;8.660;2023-06-14T00:02:53;16.50;1.00
3778;DHT22;1904;50.076;8.660;2023-06-14T00:05:21;16.50;1.00
3778;DHT22;1904;50.076;8.660;2023-06-14T00:07:48;16.50;1.00
3778;DHT22;1904;50.076;8.660;2023-06-14T00:10:15;16.50;1.00
3778;DHT22;1904;50.076;8.660;2023-06-14T00:12:41;16.40;1.00
3778;DHT22;1904;50.076;8.660;2023-06-14T00:15:11;16.40;1.00
3778;DHT22;1904;50.076;8.660;2023-06-14T00:17:36;16.40;1.00
3778;DHT22;1904;50.076;8.660;2023-06-14T00:20:11;16.40;1.00
3778;DHT22;1904;50.076;8.660;2023-06-14T00:22:53;16.30;1.00
3778;DHT22;1904;50.076;8.660;2023-06-14T00:25:46;16.30;1.00
3778;DHT22;1904;50.076;8.660;2023-06-14T00:28:34;16.30;1.00
3778;DHT22;1904;50.076;8.660;2023-06-14T00:31:17;16.30;1.00
3778;DHT22;1904;50.076;8.660;2023-06-14T00:33:53;16.20;1.00
3778;DHT22;1904;50.076;8.660;2023-06-14T00:36:29;16.20;1.00
3778;DHT22;1904;50.076;8.660;2023-06-14T00:39:16;16.20;1.00
3778;DHT22;1904;50.076;8.660;2023-06-14T00:41:47;16.20;1.00
3778;DHT22;1904;50.076;8.660;2023-06-14T00:44:17;16.20;1.00
3778;DHT22;1904;50.076;8.660;2023-06-14T00:46:44;16.10;1.00
3778;DHT22;1904;50.076;8.660;2023-06-14T00:49:34;16.10;1.00
3778;DHT22;1904;50.076;8.660;2023-06-14T00:52:23;16.10;1.00
3778;DHT22;1904;50.076;8.660;2023-06-14T00:54:53;16.00;1.00
3778;DHT22;1904;50.076;8.660;2023-06-14T00:57:29;16.00;1.00
3778;DHT22;1904;50.076;8.660;2023-06-14T00:59:59;15.90;1.00
3778;DHT22;1904;50.076;8.660;2023-06-14T01:02:29;15.90;1.00
3778;DHT22;1904;50.076;8.660;2023-06-14T01:04:55;15.90;1.00
3778;DHT22;1904;50.076;8.660;2023-06-14T01:15:30;15.80;1.00
3778;DHT22;1904;50.076;8.660;2023-06-14T01:17:57;15.80;1.00
3778;DHT22;1904;50.076;8.660;2023-06-14T01:20:31;15.80;1.00
3778;DHT22;1904;50.076;8.660;2023-06-14T01:23:17;15.80;1.00
3778;DHT22;1904;50.076;8.660;2023-06-14T01:28:53;15.80;1.00
3778;DHT22;1904;50.076;8.660;2023-06-14T01:31:29;15.70;1.00
3778;DHT22;1904;50.076;8.660;2023-06-14T01:34:05;15.70;1.00
3778;DHT22;1904;50.076;8.660;2023-06-14T01:36:36;15.70;1.00
3778;DHT22;1904;50.076;8.660;2023-06-14T01:39:14;15.80;1.00
3778;DHT22;1904;50.076;8.660;2023-06-14T01:41:53;15.80;1.00
3778;DHT22;1904;50.076;8.660;2023-06-14T01:44:30;15.70;1.00
3778;DHT22;1904;50.076;8.660;2023-06-14T01:46:59;15.70;1.00
3778;DHT22;1904;50.076;8.660;2023-06-14T01:49:44;15.80;1.00
3778;DHT22;1904;50.076;8.660;2023-06-14T01:52:17;17.50;1.00
3778;DHT22;1904;50.076;8.660;2023-06-14T01:54:53;15.70;1.00
3778;DHT22;1904;50.076;8.660;2023-06-14T01:57:24;15.80;1.00
3778;DHT22;1904;50.076;8.660;2023-06-14T01:59:59;15.70;1.00
3778;DHT22;1904;50.076;8.660;2023-06-14T02:02:29;15.70;1.00
3778;DHT22;1904;50.076;8.660;2023-06-14T02:04:55;15.70;1.00
3778;DHT22;1904;50.076;8.660;2023-06-14T02:07:23;15.70;1.00
3778;DHT22;1904;50.076;8.660;2023-06-14T02:09:48;15.70;1.00
3778;DHT22;1904;50.076;8.660;2023-06-14T02:12:14;15.70;1.00
3778;DHT22;1904;50.076;8.660;2023-06-14T02:14:40;15.60;1.00
3778;DHT22;1904;50.076;8.660;2023-06-14T02:17:05;15.70;1.00
3778;DHT22;1904;50.076;8.660;2023-06-14T02:19:31;15.60;1.00
3778;DHT22;1904;50.076;8.660;2023-06-14T02:21:57;15.60;1.00
3778;DHT22;1904;50.076;8.660;2023-06-14T02:24:29;15.50;1.00
3778;DHT22;1904;50.076;8.660;2023-06-14T02:26:55;15.50;1.00
3778;DHT22;1904;50.076;8.660;2023-06-14T02:29:21;15.50;1.00
3778;DHT22;1904;50.076;8.660;2023-06-14T02:31:47;15.40;1.00
3778;DHT22;1904;50.076;8.660;2023-06-14T02:34:14;15.40;1.00
3778;DHT22;1904;50.076;8.660;2023-06-14T02:36:42;15.40;1.00
3778;DHT22;1904;50.076;8.660;2023-06-14T02:39:11;15.40;1.00
3778;DHT22;1904;50.076;8.660;2023-06-14T02:41:41;15.30;1.00
3778;DHT22;1904;50.076;8.660;2023-06-14T02:44:06;15.30;1.00
3778;DHT22;1904;50.076;8.660;2023-06-14T02:46:33;15.30;1.00
3778;DHT22;1904;50.076;8.660;2023-06-14T02:48:59;15.30;1.00
3778;DHT22;1904;50.076;8.660;2023-06-14T02:51:25;15.20;1.00
3778;DHT22;1904;50.076;8.660;2023-06-14T02:53:51;15.20;1.00
3778;DHT22;1904;50.076;8.660;2023-06-14T02:56:23;15.30;1.00
3778;DHT22;1904;50.076;8.660;2023-06-14T02:58:48;15.20;1.00
3778;DHT22;1904;50.076;8.660;2023-06-14T03:01:14;15.20;1.00
3778;DHT22;1904;50.076;8.660;2023-06-14T03:03:40;15.10;1.00
3778;DHT22;1904;50.076;8.660;2023-06-14T03:06:29;15.10;1.00
3778;DHT22;1904;50.076;8.660;2023-06-14T03:08:59;15.10;1.00
3778;DHT22;1904;50.076;8.660;2023-06-14T03:11:29;15.10;1.00
3778;DHT22;1904;50.076;8.660;2023-06-14T03:13:59;15.10;1.00
3778;DHT22;1904;50.076;8.660;2023-06-14T03:16:29;15.20;1.00
3778;DHT22;1904;50.076;8.660;2023-06-14T03:18:59;15.20;1.00
3778;DHT22;1904;50.076;8.660;2023-06-14T03:21:29;15.20;1.00
3778;DHT22;1904;50.076;8.660;2023-06-14T03:23:59;15.30;1.00
3778;DHT22;1904;50.076;8.660;2023-06-14T03:26:25;15.30;1.00
3778;DHT22;1904;50.076;8.660;2023-06-14T03:47:07;15.50;1.00
3778;DHT22;1904;50.076;8.660;2023-06-14T04:17:46;15.90;1.00
3778;DHT22;1904;50.076;8.660;2023-06-14T04:20:17;15.90;1.00
3778;DHT22;1904;50.076;8.660;2023-06-14T04:26:05;15.90;1.00
3778;DHT22;1904;50.076;8.660;2023-06-14T04:32:16;16.00;1.00
3778;DHT22;1904;50.076;8.660;2023-06-14T04:34:44;16.00;1.00
3778;DHT22;1904;50.076;8.660;2023-06-14T04:37:11;16.10;1.00
3778;DHT22;1904;50.076;8.660;2023-06-14T04:39:58;16.10;1.00
3778;DHT22;1904;50.076;8.660;2023-06-14T04:42:52;16.10;1.00
3778;DHT22;1904;50.076;8.660;2023-06-14T04:45:46;16.20;1.00
3778;DHT22;1904;50.076;8.660;2023-06-14T04:51:53;16.30;1.00
3778;DHT22;1904;50.076;8.660;2023-06-14T04:54:29;16.40;1.00
3778;DHT22;1904;50.076;8.660;2023-06-14T05:00:00;16.50;1.00
3778;DHT22;1904;50.076;8.660;2023-06-14T05:05:59;16.60;1.00
3778;DHT22;1904;50.076;8.660;2023-06-14T05:08:59;16.60;1.00
3778;DHT22;1904;50.076;8.660;2023-06-14T05:11:59;16.70;1.00
3778;DHT22;1904;50.076;8.660;2023-06-14T05:14:59;16.80;1.00
3778;DHT22;1904;50.076;8.660;2023-06-14T05:17:53;16.80;1.00
3778;DHT22;1904;50.076;8.660;2023-06-14T05:20:29;16.90;1.00
3778;DHT22;1904;50.076;8.660;2023-06-14T05:23:29;17.00;1.00
3778;DHT22;1904;50.076;8.660;2023-06-14T05:25:54;17.00;1.00
3778;DHT22;1904;50.076;8.660;2023-06-14T05:28:29;17.00;1.00
3778;DHT22;1904;50.076;8.660;2023-06-14T05:31:29;17.10;1.00
3778;DHT22;1904;50.076;8.660;2023-06-14T05:42:47;17.50;1.00
3778;DHT22;1904;50.076;8.660;2023-06-14T05:48:47;17.60;1.00
3778;DHT22;1904;50.076;8.660;2023-06-14T05:51:17;17.60;1.00
3778;DHT22;1904;50.076;8.660;2023-06-14T05:57:05;17.70;1.00
3778;DHT22;1904;50.076;8.660;2023-06-14T05:59:59;17.80;1.00
3778;DHT22;1904;50.076;8.660;2023-06-14T06:02:29;17.90;1.00
3778;DHT22;1904;50.076;8.660;2023-06-14T06:05:29;18.00;1.00
3778;DHT22;1904;50.076;8.660;2023-06-14T06:07:59;18.00;1.00
3778;DHT22;1904;50.076;8.660;2023-06-14T06:10:59;18.10;1.00
3778;DHT22;1904;50.076;8.660;2023-06-14T06:13:47;18.20;1.00
3778;DHT22;1904;50.076;8.660;2023-06-14T06:19:59;18.50;1.00
3778;DHT22;1904;50.076;8.660;2023-06-14T06:22:29;18.50;1.00
3778;DHT22;1904;50.076;8.660;2023-06-14T06:25:23;18.50;1.00
3778;DHT22;1904;50.076;8.660;2023-06-14T06:31:11;18.70;1.00
3778;DHT22;1904;50.076;8.660;2023-06-14T06:36:59;18.90;1.00
3778;DHT22;1904;50.076;8.660;2023-06-14T06:39:32;18.90;1.00
3778;DHT22;1904;50.076;8.660;2023-06-14T06:41:59;19.10;1.00
3778;DHT22;1904;50.076;8.660;2023-06-14T06:47:24;19.30;1.00
3778;DHT22;1904;50.076;8.660;2023-06-14T06:53:29;19.50;1.00
3778;DHT22;1904;50.076;8.660;2023-06-14T06:55:55;19.60;1.00
3778;DHT22;1904;50.076;8.660;2023-06-14T06:58:29;19.70;1.00
3778;DHT22;1904;50.076;8.660;2023-06-14T07:00:59;19.90;1.00
3778;DHT22;1904;50.076;8.660;2023-06-14T07:03:47;20.00;1.00
3778;DHT22;1904;50.076;8.660;2023-06-14T07:06:23;20.00;1.00
3778;DHT22;1904;50.076;8.660;2023-06-14T07:08:59;20.10;1.00
3778;DHT22;1904;50.076;8.660;2023-06-14T07:11:29;20.20;1.00
3778;DHT22;1904;50.076;8.660;2023-06-14T07:13:59;20.30;1.00
3778;DHT22;1904;50.076;8.660;2023-06-14T07:16:59;20.40;1.00
3778;DHT22;1904;50.076;8.660;2023-06-14T07:19:47;20.40;1.00
3778;DHT22;1904;50.076;8.660;2023-06-14T07:22:23;20.60;1.00
3778;DHT22;1904;50.076;8.660;2023-06-14T07:25:23;20.60;1.00
3778;DHT22;1904;50.076;8.660;2023-06-14T07:27:59;20.70;1.00
3778;DHT22;1904;50.076;8.660;2023-06-14T07:30:29;20.90;1.00
3778;DHT22;1904;50.076;8.660;2023-06-14T07:36:17;21.10;1.00
3778;DHT22;1904;50.076;8.660;2023-06-14T07:39:17;21.20;1.00
3778;DHT22;1904;50.076;8.660;2023-06-14T07:42:17;21.20;1.00
3778;DHT22;1904;50.076;8.660;2023-06-14T07:48:18;21.40;1.00
3778;DHT22;1904;50.076;8.660;2023-06-14T07:54:05;21.60;1.00
3778;DHT22;1904;50.076;8.660;2023-06-14T08:00:01;21.60;1.00
3778;DHT22;1904;50.076;8.660;2023-06-14T08:05:49;21.70;1.00
3778;DHT22;1904;50.076;8.660;2023-06-14T08:11:37;22.00;1.00
3778;DHT22;1904;50.076;8.660;2023-06-14T08:23:12;22.60;1.00
3778;DHT22;1904;50.076;8.660;2023-06-14T08:25:54;22.60;1.00
3778;DHT22;1904;50.076;8.660;2023-06-14T08:31:53;22.60;1.00
3778;DHT22;1904;50.076;8.660;2023-06-14T08:34:19;22.70;1.00
3778;DHT22;1904;50.076;8.660;2023-06-14T08:36:47;22.80;1.00
3778;DHT22;1904;50.076;8.660;2023-06-14T08:39:15;22.80;1.00
3778;DHT22;1904;50.076;8.660;2023-06-14T08:55:29;23.20;1.00
3778;DHT22;1904;50.076;8.660;2023-06-14T08:58:12;23.20;1.00
3778;DHT22;1904;50.076;8.660;2023-06-14T09:00:40;23.20;1.00
3778;DHT22;1904;50.076;8.660;2023-06-14T09:03:11;23.30;1.00
3778;DHT22;1904;50.076;8.660;2023-06-14T09:05:53;23.40;1.00
3778;DHT22;1904;50.076;8.660;2023-06-14T09:08:36;23.40;1.00
3778;DHT22;1904;50.076;8.660;2023-06-14T09:11:06;23.50;1.00
3778;DHT22;1904;50.076;8.660;2023-06-14T09:17:17;24.00;1.00
3778;DHT22;1904;50.076;8.660;2023-06-14T09:26:30;24.40;1.00
3778;DHT22;1904;50.076;8.660;2023-06-14T09:28:55;24.60;1.00
3778;DHT22;1904;50.076;8.660;2023-06-14T09:31:24;24.70;1.00
3778;DHT22;1904;50.076;8.660;2023-06-14T09:33:54;24.60;1.00
3778;DHT22;1904;50.076;8.660;2023-06-14T09:43:17;24.90;1.00
3778;DHT22;1904;50.076;8.660;2023-06-14T09:46:11;24.90;1.00
3778;DHT22;1904;50.076;8.660;2023-06-14T09:58:26;25.50;1.00
3778;DHT22;1904;50.076;8.660;2023-06-14T10:11:17;25.40;1.00
3778;DHT22;1904;50.076;8.660;2023-06-14T10:13:43;25.40;1.00
3778;DHT22;1904;50.076;8.660;2023-06-14T10:23:26;25.40;1.00
3778;DHT22;1904;50.076;8.660;2023-06-14T10:26:00;25.50;1.00
3778;DHT22;1904;50.076;8.660;2023-06-14T10:28:42;25.50;1.00
3778;DHT22;1904;50.076;8.660;2023-06-14T10:37:53;25.40;1.00
3778;DHT22;1904;50.076;8.660;2023-06-14T10:57:24;27.30;1.00
3778;DHT22;1904;50.076;8.660;2023-06-14T11:03:36;26.80;1.00
3778;DHT22;1904;50.076;8.660;2023-06-14T11:06:27;26.80;1.00
3778;DHT22;1904;50.076;8.660;2023-06-14T11:12:25;26.70;1.00
3778;DHT22;1904;50.076;8.660;2023-06-14T11:18:13;26.70;1.00
3778;DHT22;1904;50.076;8.660;2023-06-14T11:31:14;27.10;1.00
3778;DHT22;1904;50.076;8.660;2023-06-14T11:33:55;27.20;1.00
3778;DHT22;1904;50.076;8.660;2023-06-14T11:40:18;27.30;1.00
3778;DHT22;1904;50.076;8.660;2023-06-14T11:45:54;28.10;1.00
3778;DHT22;1904;50.076;8.660;2023-06-14T11:58:25;28.70;1.00
3778;DHT22;1904;50.076;8.660;2023-06-14T12:00:52;28.50;1.00
3778;DHT22;1904;50.076;8.660;2023-06-14T12:03:23;28.30;1.00
3778;DHT22;1904;50.076;8.660;2023-06-14T12:06:09;28.30;1.00
3778;DHT22;1904;50.076;8.660;2023-06-14T12:09:06;28.20;1.00
3778;DHT22;1904;50.076;8.660;2023-06-14T12:12:15;28.20;1.00
3778;DHT22;1904;50.076;8.660;2023-06-14T12:31:43;28.70;1.00
3778;DHT22;1904;50.076;8.660;2023-06-14T12:34:24;28.80;1.00
3778;DHT22;1904;50.076;8.660;2023-06-14T12:37:12;28.90;1.00
3778;DHT22;1904;50.076;8.660;2023-06-14T12:39:54;28.90;1.00
3778;DHT22;1904;50.076;8.660;2023-06-14T12:42:54;29.20;1.00
3778;DHT22;1904;50.076;8.660;2023-06-14T12:45:20;29.20;1.00
3778;DHT22;1904;50.076;8.660;2023-06-14T12:47:54;29.00;1.00
3778;DHT22;1904;50.076;8.660;2023-06-14T12:50:24;28.90;1.00
3778;DHT22;1904;50.076;8.660;2023-06-14T12:52:50;29.10;1.00
3778;DHT22;1904;50.076;8.660;2023-06-14T12:55:18;29.50;1.00
3778;DHT22;1904;50.076;8.660;2023-06-14T12:57:48;29.70;1.00
3778;DHT22;1904;50.076;8.660;2023-06-14T13:00:24;29.80;1.00
3778;DHT22;1904;50.076;8.660;2023-06-14T13:02:55;29.90;1.00
3778;DHT22;1904;50.076;8.660;2023-06-14T13:05:54;30.00;1.00
3778;DHT22;1904;50.076;8.660;2023-06-14T13:08:30;30.10;1.00
3778;DHT22;1904;50.076;8.660;2023-06-14T13:11:12;30.00;1.00
3778;DHT22;1904;50.076;8.660;2023-06-14T13:14:00;30.00;1.00
3778;DHT22;1904;50.076;8.660;2023-06-14T13:16:54;29.80;1.00
3778;DHT22;1904;50.076;8.660;2023-06-14T13:19:54;29.70;1.00
3778;DHT22;1904;50.076;8.660;2023-06-14T13:26:18;30.00;1.00
3778;DHT22;1904;50.076;8.660;2023-06-14T13:28:44;30.20;1.00
3778;DHT22;1904;50.076;8.660;2023-06-14T13:34:31;30.10;1.00
3778;DHT22;1904;50.076;8.660;2023-06-14T13:40:07;29.50;1.00
3778;DHT22;1904;50.076;8.660;2023-06-14T13:43:00;29.20;1.00
3778;DHT22;1904;50.076;8.660;2023-06-14T13:45:42;29.00;1.00
3778;DHT22;1904;50.076;8.660;2023-06-14T13:55:18;29.60;1.00
3778;DHT22;1904;50.076;8.660;2023-06-14T13:57:48;30.30;1.00
3778;DHT22;1904;50.076;8.660;2023-06-14T14:03:41;30.90;1.00
3778;DHT22;1904;50.076;8.660;2023-06-14T14:06:45;30.70;1.00
3778;DHT22;1904;50.076;8.660;2023-06-14T14:09:24;30.70;1.00
3778;DHT22;1904;50.076;8.660;2023-06-14T14:15:12;29.80;1.00
3778;DHT22;1904;50.076;8.660;2023-06-14T14:18:05;29.60;1.00
3778;DHT22;1904;50.076;8.660;2023-06-14T14:20:40;29.10;1.00
3778;DHT22;1904;50.076;8.660;2023-06-14T14:26:27;29.00;1.00
3778;DHT22;1904;50.076;8.660;2023-06-14T14:32:15;29.40;1.00
3778;DHT22;1904;50.076;8.660;2023-06-14T14:38:30;30.20;1.00
3778;DHT22;1904;50.076;8.660;2023-06-14T14:51:42;29.50;1.00
3778;DHT22;1904;50.076;8.660;2023-06-14T14:54:30;29.40;1.00
3778;DHT22;1904;50.076;8.660;2023-06-14T14:57:00;29.70;1.00
3778;DHT22;1904;50.076;8.660;2023-06-14T14:59:30;30.00;1.00
3778;DHT22;1904;50.076;8.660;2023-06-14T15:08:36;31.20;1.00
3778;DHT22;1904;50.076;8.660;2023-06-14T15:25:28;37.10;1.00
3778;DHT22;1904;50.076;8.660;2023-06-14T15:28:12;38.10;1.00
3778;DHT22;1904;50.076;8.660;2023-06-14T15:31:06;39.40;1.00
3778;DHT22;1904;50.076;8.660;2023-06-14T15:50:22;45.00;1.00
3778;DHT22;1904;50.076;8.660;2023-06-14T15:58:36;41.40;1.00
3778;DHT22;1904;50.076;8.660;2023-06-14T16:01:12;41.00;1.00
3778;DHT22;1904;50.076;8.660;2023-06-14T16:10:22;37.80;1.00
3778;DHT22;1904;50.076;8.660;2023-06-14T16:16:48;36.10;1.00
3778;DHT22;1904;50.076;8.660;2023-06-14T16:19:24;34.70;1.00
3778;DHT22;1904;50.076;8.660;2023-06-14T16:21:50;34.40;1.00
3778;DHT22;1904;50.076;8.660;2023-06-14T16:24:24;33.90;1.00
3778;DHT22;1904;50.076;8.660;2023-06-14T16:27:00;34.00;1.00
3778;DHT22;1904;50.076;8.660;2023-06-14T16:29:36;35.70;1.00
3778;DHT22;1904;50.076;8.660;2023-06-14T16:32:12;37.70;1.00
3778;DHT22;1904;50.076;8.660;2023-06-14T16:34:48;39.60;1.00
3778;DHT22;1904;50.076;8.660;2023-06-14T16:37:16;40.80;1.00
3778;DHT22;1904;50.076;8.660;2023-06-14T16:39:48;41.10;1.00
3778;DHT22;1904;50.076;8.660;2023-06-14T16:42:16;40.80;1.00
3778;DHT22;1904;50.076;8.660;2023-06-14T16:44:43;41.60;1.00
3778;DHT22;1904;50.076;8.660;2023-06-14T16:47:11;42.20;1.00
3778;DHT22;1904;50.076;8.660;2023-06-14T16:49:43;42.40;1.00
3778;DHT22;1904;50.076;8.660;2023-06-14T16:55:30;41.30;1.00
3778;DHT22;1904;50.076;8.660;2023-06-14T16:58:22;39.80;1.00
3778;DHT22;1904;50.076;8.660;2023-06-14T17:01:06;38.10;1.00
3778;DHT22;1904;50.076;8.660;2023-06-14T17:03:49;36.70;1.00
3778;DHT22;1904;50.076;8.660;2023-06-14T17:06:30;36.10;1.00
3778;DHT22;1904;50.076;8.660;2023-06-14T17:08:56;36.90;1.00
3778;DHT22;1904;50.076;8.660;2023-06-14T17:11:22;38.00;1.00
3778;DHT22;1904;50.076;8.660;2023-06-14T17:13:48;39.10;1.00
3778;DHT22;1904;50.076;8.660;2023-06-14T17:16:14;39.80;1.00
3778;DHT22;1904;50.076;8.660;2023-06-14T17:18:40;40.90;1.00
3778;DHT22;1904;50.076;8.660;2023-06-14T17:21:06;41.70;1.00
3778;DHT22;1904;50.076;8.660;2023-06-14T17:23:32;42.40;1.00
3778;DHT22;1904;50.076;8.660;2023-06-14T17:25:59;43.10;1.00
3778;DHT22;1904;50.076;8.660;2023-06-14T17:28:25;43.60;1.00
3778;DHT22;1904;50.076;8.660;2023-06-14T17:30:51;44.20;1.00
3778;DHT22;1904;50.076;8.660;2023-06-14T17:33:17;44.90;1.00
3778;DHT22;1904;50.076;8.660;2023-06-14T17:35:43;45.30;1.00
3778;DHT22;1904;50.076;8.660;2023-06-14T17:38:09;45.20;1.00
3778;DHT22;1904;50.076;8.660;2023-06-14T17:47:21;41.10;1.00
3778;DHT22;1904;50.076;8.660;2023-06-14T17:50:06;38.80;1.00
3778;DHT22;1904;50.076;8.660;2023-06-14T17:59:16;33.70;1.00
3778;DHT22;1904;50.076;8.660;2023-06-14T18:05:04;31.70;1.00
3778;DHT22;1904;50.076;8.660;2023-06-14T18:07:30;30.60;1.00
3778;DHT22;1904;50.076;8.660;2023-06-14T18:09:56;30.00;1.00
3778;DHT22;1904;50.076;8.660;2023-06-14T18:12:24;29.30;1.00
3778;DHT22;1904;50.076;8.660;2023-06-14T18:15:00;28.60;1.00
3778;DHT22;1904;50.076;8.660;2023-06-14T18:17:48;28.10;1.00
3778;DHT22;1904;50.076;8.660;2023-06-14T18:20:42;27.60;1.00
3778;DHT22;1904;50.076;8.660;2023-06-14T18:23:18;27.00;1.00
3778;DHT22;1904;50.076;8.660;2023-06-14T18:26:00;26.70;1.00
3778;DHT22;1904;50.076;8.660;2023-06-14T18:34:38;25.60;1.00
3778;DHT22;1904;50.076;8.660;2023-06-14T18:37:24;25.30;1.00
3778;DHT22;1904;50.076;8.660;2023-06-14T18:39:55;24.90;1.00
3778;DHT22;1904;50.076;8.660;2023-06-14T18:42:31;24.60;1.00
3778;DHT22;1904;50.076;8.660;2023-06-14T18:45:13;24.40;1.00
3778;DHT22;1904;50.076;8.660;2023-06-14T18:48:06;24.20;1.00
3778;DHT22;1904;50.076;8.660;2023-06-14T18:53:53;23.80;1.00
3778;DHT22;1904;50.076;8.660;2023-06-14T18:59:41;23.40;1.00
3778;DHT22;1904;50.076;8.660;2023-06-14T19:08:52;22.90;1.00
3778;DHT22;1904;50.076;8.660;2023-06-14T19:14:54;22.60;1.00
3778;DHT22;1904;50.076;8.660;2023-06-14T19:17:20;22.50;1.00
3778;DHT22;1904;50.076;8.660;2023-06-14T19:19:48;22.40;1.00
3778;DHT22;1904;50.076;8.660;2023-06-14T19:28:58;22.00;1.00
3778;DHT22;1904;50.076;8.660;2023-06-14T19:34:46;21.70;1.00
3778;DHT22;1904;50.076;8.660;2023-06-14T19:37:12;21.50;1.00
3778;DHT22;1904;50.076;8.660;2023-06-14T19:39:42;21.50;1.00
3778;DHT22;1904;50.076;8.660;2023-06-14T19:42:36;21.30;1.00
3778;DHT22;1904;50.076;8.660;2023-06-14T19:48:25;21.20;1.00
3778;DHT22;1904;50.076;8.660;2023-06-14T19:51:00;21.10;1.00
3778;DHT22;1904;50.076;8.660;2023-06-14T19:56:54;20.90;1.00
3778;DHT22;1904;50.076;8.660;2023-06-14T19:59:54;20.80;1.00
3778;DHT22;1904;50.076;8.660;2023-06-14T20:06:00;20.70;1.00
3778;DHT22;1904;50.076;8.660;2023-06-14T20:08:44;20.60;1.00
3778;DHT22;1904;50.076;8.660;2023-06-14T20:14:32;20.50;1.00
3778;DHT22;1904;50.076;8.660;2023-06-14T20:20:31;20.30;1.00
3778;DHT22;1904;50.076;8.660;2023-06-14T20:22:56;20.20;1.00
3778;DHT22;1904;50.076;8.660;2023-06-14T20:25:24;20.20;1.00
3778;DHT22;1904;50.076;8.660;2023-06-14T20:27:50;20.10;1.00
3778;DHT22;1904;50.076;8.660;2023-06-14T20:30:16;20.10;1.00
3778;DHT22;1904;50.076;8.660;2023-06-14T20:32:41;20.00;1.00
3778;DHT22;1904;50.076;8.660;2023-06-14T20:35:25;20.00;1.00
3778;DHT22;1904;50.076;8.660;2023-06-14T20:37:55;19.90;1.00
3778;DHT22;1904;50.076;8.660;2023-06-14T20:40:21;19.90;1.00
3778;DHT22;1904;50.076;8.660;2023-06-14T20:42:55;19.80;1.00
3778;DHT22;1904;50.076;8.660;2023-06-14T20:45:54;19.70;1.00
3778;DHT22;1904;50.076;8.660;2023-06-14T20:48:37;19.70;1.00
3778;DHT22;1904;50.076;8.660;2023-06-14T20:51:02;19.60;1.00
3778;DHT22;1904;50.076;8.660;2023-06-14T20:53:31;19.50;1.00
3778;DHT22;1904;50.076;8.660;2023-06-14T20:56:13;19.50;1.00
3778;DHT22;1904;50.076;8.660;2023-06-14T21:02:01;19.40;1.00
3778;DHT22;1904;50.076;8.660;2023-06-14T21:04:31;19.30;1.00
3778;DHT22;1904;50.076;8.660;2023-06-14T21:07:13;19.20;1.00
3778;DHT22;1904;50.076;8.660;2023-06-14T21:09:39;19.20;1.00
3778;DHT22;1904;50.076;8.660;2023-06-14T21:12:19;19.20;1.00
3778;DHT22;1904;50.076;8.660;2023-06-14T21:14:55;19.20;1.00
3778;DHT22;1904;50.076;8.660;2023-06-14T21:17:31;19.10;1.00
3778;DHT22;1904;50.076;8.660;2023-06-14T21:20:01;19.10;1.00
3778;DHT22;1904;50.076;8.660;2023-06-14T21:22:27;19.00;1.00
3778;DHT22;1904;50.076;8.660;2023-06-14T21:24:53;18.90;1.00
3778;DHT22;1904;50.076;8.660;2023-06-14T21:27:25;18.90;1.00
3778;DHT22;1904;50.076;8.660;2023-06-14T21:29:55;18.90;1.00
3778;DHT22;1904;50.076;8.660;2023-06-14T21:32:25;18.80;1.00
3778;DHT22;1904;50.076;8.660;2023-06-14T21:35:04;18.80;1.00
3778;DHT22;1904;50.076;8.660;2023-06-14T21:37:31;18.80;1.00
3778;DHT22;1904;50.076;8.660;2023-06-14T21:39:56;18.80;1.00
3778;DHT22;1904;50.076;8.660;2023-06-14T21:42:22;18.70;1.00
3778;DHT22;1904;50.076;8.660;2023-06-14T21:44:48;18.60;1.00
3778;DHT22;1904;50.076;8.660;2023-06-14T21:47:19;18.70;1.00
3778;DHT22;1904;50.076;8.660;2023-06-14T21:49:45;18.60;1.00
3778;DHT22;1904;50.076;8.660;2023-06-14T21:52:19;18.60;1.00
3778;DHT22;1904;50.076;8.660;2023-06-14T21:55:06;18.50;1.00
3778;DHT22;1904;50.076;8.660;2023-06-14T21:57:54;18.50;1.00
3778;DHT22;1904;50.076;8.660;2023-06-14T22:03:32;18.30;1.00
3778;DHT22;1904;50.076;8.660;2023-06-14T22:05:59;18.20;1.00
3778;DHT22;1904;50.076;8.660;2023-06-14T22:08:31;18.20;1.00
3778;DHT22;1904;50.076;8.660;2023-06-14T22:11:01;18.20;1.00
3778;DHT22;1904;50.076;8.660;2023-06-14T22:13:55;18.10;1.00
3778;DHT22;1904;50.076;8.660;2023-06-14T22:16:42;18.10;1.00
3778;DHT22;1904;50.076;8.660;2023-06-14T22:19:13;18.10;1.00
3778;DHT22;1904;50.076;8.660;2023-06-14T22:21:39;18.00;1.00
3778;DHT22;1904;50.076;8.660;2023-06-14T22:24:06;18.00;1.00
3778;DHT22;1904;50.076;8.660;2023-06-14T22:26:41;17.90;1.00
3778;DHT22;1904;50.076;8.660;2023-06-14T22:29:16;17.90;1.00
3778;DHT22;1904;50.076;8.660;2023-06-14T22:31:50;17.80;1.00
3778;DHT22;1904;50.076;8.660;2023-06-14T22:34:16;17.80;1.00
3778;DHT22;1904;50.076;8.660;2023-06-14T22:36:41;17.80;1.00
3778;DHT22;1904;50.076;8.660;2023-06-14T22:39:14;17.70;1.00
3778;DHT22;1904;50.076;8.660;2023-06-14T22:41:49;17.70;1.00
3778;DHT22;1904;50.076;8.660;2023-06-14T22:44:14;17.60;1.00
3778;DHT22;1904;50.076;8.660;2023-06-14T22:46:43;17.60;1.00
3778;DHT22;1904;50.076;8.660;2023-06-14T22:49:13;17.50;1.00
3778;DHT22;1904;50.076;8.660;2023-06-14T22:52:06;17.50;1.00
3778;DHT22;1904;50.076;8.660;2023-06-14T22:54:43;17.40;1.00
3778;DHT22;1904;50.076;8.660;2023-06-14T22:57:37;17.30;1.00
3778;DHT22;1904;50.076;8.660;2023-06-14T23:00:36;17.20;1.00
3778;DHT22;1904;50.076;8.660;2023-06-14T23:03:07;17.20;1.00
3778;DHT22;1904;50.076;8.660;2023-06-14T23:05:49;17.10;1.00
3778;DHT22;1904;50.076;8.660;2023-06-14T23:08:25;17.00;1.00
3778;DHT22;1904;50.076;8.660;2023-06-14T23:10:55;17.00;1.00
3778;DHT22;1904;50.076;8.660;2023-06-14T23:16:55;16.90;1.00
3778;DHT22;1904;50.076;8.660;2023-06-14T23:19:25;16.80;1.00
3778;DHT22;1904;50.076;8.660;2023-06-14T23:21:55;16.80;1.00
3778;DHT22;1904;50.076;8.660;2023-06-14T23:24:24;16.70;1.00
3778;DHT22;1904;50.076;8.660;2023-06-14T23:27:01;16.70;1.00
3778;DHT22;1904;50.076;8.660;2023-06-14T23:29:27;16.70;1.00
3778;DHT22;1904;50.076;8.660;2023-06-14T23:32:01;16.70;1.00
3778;DHT22;1904;50.076;8.660;2023-06-14T23:34:27;16.60;1.00
3778;DHT22;1904;50.076;8.660;2023-06-14T23:37:01;16.60;1.00
3778;DHT22;1904;50.076;8.660;2023-06-14T23:39:27;16.50;1.00
3778;DHT22;1904;50.076;8.660;2023-06-14T23:41:53;16.50;1.00
3778;DHT22;1904;50.076;8.660;2023-06-14T23:44:25;16.40;1.00
3778;DHT22;1904;50.076;8.660;2023-06-14T23:46:55;16.40;1.00
3778;DHT22;1904;50.076;8.660;2023-06-14T23:49:25;16.40;1.00
3778;DHT22;1904;50.076;8.660;2023-06-14T23:51:50;16.30;1.00
3778;DHT22;1904;50.076;8.660;2023-06-14T23:54:25;16.20;1.00
3778;DHT22;1904;50.076;8.660;2023-06-14T23:56:56;16.20;1.00
3778;DHT22;1904;50.076;8.660;2023-06-14T23:59:22;16.10;1.00
